sensor_id;sensor_type;location;lat;lon;timestamp;P1;durP1;ratioP1;P2;durP2;ratioP2
10653;SDS011;5375;51.250;6.776;2023-06-10T00:02:10;4.97;;;4.47;;
10653;SDS011;5375;51.250;6.776;2023-06-10T00:04:36;4.80;;;4.30;;
10653;SDS011;5375;51.250;6.776;2023-06-10T00:07:03;5.57;;;4.32;;
10653;SDS011;5375;51.250;6.776;2023-06-10T00:09:33;4.65;;;4.03;;
10653;SDS011;5375;51.250;6.776;2023-06-10T00:12:05;5.20;;;4.47;;
10653;SDS011;5375;51.250;6.776;2023-06-10T00:14:32;5.05;;;4.43;;
10653;SDS011;5375;51.250;6.776;2023-06-10T00:16:58;4.55;;;4.15;;
10653;SDS011;5375;51.250;6.776;2023-06-10T00:19:24;4.35;;;3.95;;
10653;SDS011;5375;51.250;6.776;2023-06-10T00:21:55;5.65;;;4.25;;
10653;SDS011;5375;51.250;6.776;2023-06-10T00:24:24;4.38;;;3.97;;
10653;SDS011;5375;51.250;6.776;2023-06-10T00:26:49;5.28;;;4.70;;
10653;SDS011;5375;51.250;6.776;2023-06-10T00:29:15;10.10;;;4.80;;
10653;SDS011;5375;51.250;6.776;2023-06-10T00:31:41;4.80;;;4.22;;
10653;SDS011;5375;51.250;6.776;2023-06-10T00:34:07;4.40;;;4.00;;
10653;SDS011;5375;51.250;6.776;2023-06-10T00:36:33;4.45;;;4.05;;
10653;SDS011;5375;51.250;6.776;2023-06-10T00:38:58;6.22;;;4.65;;
10653;SDS011;5375;51.250;6.776;2023-06-10T00:41:24;5.03;;;4.53;;
10653;SDS011;5375;51.250;6.776;2023-06-10T00:43:53;7.38;;;4.68;;
10653;SDS011;5375;51.250;6.776;2023-06-10T00:46:18;5.55;;;4.40;;
10653;SDS011;5375;51.250;6.776;2023-06-10T00:48:46;8.30;;;5.13;;
10653;SDS011;5375;51.250;6.776;2023-06-10T00:51:11;4.80;;;4.40;;
10653;SDS011;5375;51.250;6.776;2023-06-10T00:53:39;5.97;;;4.28;;
10653;SDS011;5375;51.250;6.776;2023-06-10T00:56:06;5.05;;;4.55;;
10653;SDS011;5375;51.250;6.776;2023-06-10T00:58:32;5.32;;;4.82;;
10653;SDS011;5375;51.250;6.776;2023-06-10T01:00:58;6.05;;;4.78;;
10653;SDS011;5375;51.250;6.776;2023-06-10T01:03:24;7.28;;;5.22;;
10653;SDS011;5375;51.250;6.776;2023-06-10T01:05:51;6.22;;;5.20;;
10653;SDS011;5375;51.250;6.776;2023-06-10T01:08:46;6.38;;;4.90;;
10653;SDS011;5375;51.250;6.776;2023-06-10T01:11:28;5.45;;;4.90;;
10653;SDS011;5375;51.250;6.776;2023-06-10T01:14:01;8.07;;;4.93;;
10653;SDS011;5375;51.250;6.776;2023-06-10T01:16:30;5.97;;;5.10;;
10653;SDS011;5375;51.250;6.776;2023-06-10T01:18:56;5.43;;;4.82;;
10653;SDS011;5375;51.250;6.776;2023-06-10T01:21:22;7.03;;;5.60;;
10653;SDS011;5375;51.250;6.776;2023-06-10T01:23:52;6.32;;;5.30;;
10653;SDS011;5375;51.250;6.776;2023-06-10T01:26:21;6.55;;;4.90;;
10653;SDS011;5375;51.250;6.776;2023-06-10T01:31:52;6.13;;;5.50;;
10653;SDS011;5375;51.250;6.776;2023-06-10T01:34:26;6.75;;;5.00;;
10653;SDS011;5375;51.250;6.776;2023-06-10T01:36:54;6.22;;;5.18;;
10653;SDS011;5375;51.250;6.776;2023-06-10T01:39:23;7.00;;;5.05;;
10653;SDS011;5375;51.250;6.776;2023-06-10T01:41:50;5.68;;;5.07;;
10653;SDS011;5375;51.250;6.776;2023-06-10T01:44:21;6.47;;;5.15;;
10653;SDS011;5375;51.250;6.776;2023-06-10T01:46:47;5.78;;;5.28;;
10653;SDS011;5375;51.250;6.776;2023-06-10T01:49:14;5.32;;;4.82;;
10653;SDS011;5375;51.250;6.776;2023-06-10T01:51:39;6.68;;;5.50;;
10653;SDS011;5375;51.250;6.776;2023-06-10T01:54:05;6.80;;;5.55;;
10653;SDS011;5375;51.250;6.776;2023-06-10T01:56:31;6.93;;;5.03;;
10653;SDS011;5375;51.250;6.776;2023-06-10T01:58:58;5.63;;;4.90;;
10653;SDS011;5375;51.250;6.776;2023-06-10T02:01:26;5.53;;;4.93;;
10653;SDS011;5375;51.250;6.776;2023-06-10T02:03:52;7.22;;;5.72;;
10653;SDS011;5375;51.250;6.776;2023-06-10T02:06:17;5.78;;;5.15;;
10653;SDS011;5375;51.250;6.776;2023-06-10T02:08:43;6.30;;;5.32;;
10653;SDS011;5375;51.250;6.776;2023-06-10T02:11:09;6.72;;;5.38;;
10653;SDS011;5375;51.250;6.776;2023-06-10T02:13:34;6.03;;;5.47;;
10653;SDS011;5375;51.250;6.776;2023-06-10T02:16:00;5.95;;;5.28;;
10653;SDS011;5375;51.250;6.776;2023-06-10T02:18:26;7.53;;;5.40;;
10653;SDS011;5375;51.250;6.776;2023-06-10T02:20:53;6.18;;;5.57;;
10653;SDS011;5375;51.250;6.776;2023-06-10T02:23:18;6.82;;;6.07;;
10653;SDS011;5375;51.250;6.776;2023-06-10T02:25:44;6.30;;;5.25;;
10653;SDS011;5375;51.250;6.776;2023-06-10T02:28:10;6.15;;;5.47;;
10653;SDS011;5375;51.250;6.776;2023-06-10T02:30:38;5.47;;;4.97;;
10653;SDS011;5375;51.250;6.776;2023-06-10T02:33:04;5.65;;;5.15;;
10653;SDS011;5375;51.250;6.776;2023-06-10T02:35:30;6.45;;;5.78;;
10653;SDS011;5375;51.250;6.776;2023-06-10T02:37:55;6.57;;;5.80;;
10653;SDS011;5375;51.250;6.776;2023-06-10T02:40:21;5.78;;;5.05;;
10653;SDS011;5375;51.250;6.776;2023-06-10T02:42:47;5.78;;;5.07;;
10653;SDS011;5375;51.250;6.776;2023-06-10T02:45:12;6.10;;;5.55;;
10653;SDS011;5375;51.250;6.776;2023-06-10T02:47:38;6.32;;;5.40;;
10653;SDS011;5375;51.250;6.776;2023-06-10T02:50:06;6.38;;;5.78;;
10653;SDS011;5375;51.250;6.776;2023-06-10T02:52:32;6.57;;;5.55;;
10653;SDS011;5375;51.250;6.776;2023-06-10T02:54:58;6.22;;;5.60;;
10653;SDS011;5375;51.250;6.776;2023-06-10T02:57:23;8.05;;;5.18;;
10653;SDS011;5375;51.250;6.776;2023-06-10T02:59:49;6.55;;;5.93;;
10653;SDS011;5375;51.250;6.776;2023-06-10T03:02:16;6.13;;;5.15;;
10653;SDS011;5375;51.250;6.776;2023-06-10T03:04:41;7.40;;;6.03;;
10653;SDS011;5375;51.250;6.776;2023-06-10T03:07:08;6.78;;;5.80;;
10653;SDS011;5375;51.250;6.776;2023-06-10T03:09:36;6.50;;;5.35;;
10653;SDS011;5375;51.250;6.776;2023-06-10T03:12:02;7.20;;;5.63;;
10653;SDS011;5375;51.250;6.776;2023-06-10T03:14:27;6.00;;;5.40;;
10653;SDS011;5375;51.250;6.776;2023-06-10T03:16:53;5.78;;;5.20;;
10653;SDS011;5375;51.250;6.776;2023-06-10T03:19:19;6.18;;;5.45;;
10653;SDS011;5375;51.250;6.776;2023-06-10T03:21:49;6.18;;;5.22;;
10653;SDS011;5375;51.250;6.776;2023-06-10T03:24:22;6.18;;;5.57;;
10653;SDS011;5375;51.250;6.776;2023-06-10T03:26:48;6.07;;;5.47;;
10653;SDS011;5375;51.250;6.776;2023-06-10T03:29:13;5.70;;;5.20;;
10653;SDS011;5375;51.250;6.776;2023-06-10T03:31:39;7.95;;;5.63;;
10653;SDS011;5375;51.250;6.776;2023-06-10T03:34:05;7.85;;;5.60;;
10653;SDS011;5375;51.250;6.776;2023-06-10T03:36:30;6.32;;;5.22;;
10653;SDS011;5375;51.250;6.776;2023-06-10T03:38:56;7.97;;;6.07;;
10653;SDS011;5375;51.250;6.776;2023-06-10T03:41:22;8.50;;;5.80;;
10653;SDS011;5375;51.250;6.776;2023-06-10T03:43:47;7.35;;;5.75;;
10653;SDS011;5375;51.250;6.776;2023-06-10T03:46:13;6.60;;;5.55;;
10653;SDS011;5375;51.250;6.776;2023-06-10T03:48:39;5.90;;;5.40;;
10653;SDS011;5375;51.250;6.776;2023-06-10T03:51:04;6.40;;;5.78;;
10653;SDS011;5375;51.250;6.776;2023-06-10T03:53:30;6.43;;;5.82;;
10653;SDS011;5375;51.250;6.776;2023-06-10T03:55:56;7.35;;;5.25;;
10653;SDS011;5375;51.250;6.776;2023-06-10T03:58:22;5.68;;;5.10;;
10653;SDS011;5375;51.250;6.776;2023-06-10T04:00:48;8.57;;;5.05;;
10653;SDS011;5375;51.250;6.776;2023-06-10T04:03:14;9.75;;;5.50;;
10653;SDS011;5375;51.250;6.776;2023-06-10T04:05:40;5.80;;;5.30;;
10653;SDS011;5375;51.250;6.776;2023-06-10T04:08:07;6.30;;;5.32;;
10653;SDS011;5375;51.250;6.776;2023-06-10T04:10:33;6.70;;;5.25;;
10653;SDS011;5375;51.250;6.776;2023-06-10T04:12:58;8.40;;;5.30;;
10653;SDS011;5375;51.250;6.776;2023-06-10T04:15:24;8.55;;;5.43;;
10653;SDS011;5375;51.250;6.776;2023-06-10T04:17:50;6.40;;;5.40;;
10653;SDS011;5375;51.250;6.776;2023-06-10T04:20:15;6.78;;;5.45;;
10653;SDS011;5375;51.250;6.776;2023-06-10T04:22:41;6.45;;;5.18;;
10653;SDS011;5375;51.250;6.776;2023-06-10T04:25:08;6.03;;;5.30;;
10653;SDS011;5375;51.250;6.776;2023-06-10T04:27:34;5.82;;;5.25;;
10653;SDS011;5375;51.250;6.776;2023-06-10T04:30:00;5.82;;;5.13;;
10653;SDS011;5375;51.250;6.776;2023-06-10T04:32:26;6.15;;;5.55;;
10653;SDS011;5375;51.250;6.776;2023-06-10T04:34:51;5.90;;;5.30;;
10653;SDS011;5375;51.250;6.776;2023-06-10T04:37:17;6.03;;;5.43;;
10653;SDS011;5375;51.250;6.776;2023-06-10T04:39:43;8.10;;;5.72;;
10653;SDS011;5375;51.250;6.776;2023-06-10T04:42:08;6.10;;;5.38;;
10653;SDS011;5375;51.250;6.776;2023-06-10T04:44:34;6.30;;;5.43;;
10653;SDS011;5375;51.250;6.776;2023-06-10T04:47:00;6.43;;;5.65;;
10653;SDS011;5375;51.250;6.776;2023-06-10T04:49:25;6.65;;;5.25;;
10653;SDS011;5375;51.250;6.776;2023-06-10T04:51:51;6.20;;;5.50;;
10653;SDS011;5375;51.250;6.776;2023-06-10T04:54:17;6.47;;;5.60;;
10653;SDS011;5375;51.250;6.776;2023-06-10T04:56:42;5.43;;;4.90;;
10653;SDS011;5375;51.250;6.776;2023-06-10T04:59:08;5.72;;;5.13;;
10653;SDS011;5375;51.250;6.776;2023-06-10T05:01:33;7.07;;;5.45;;
10653;SDS011;5375;51.250;6.776;2023-06-10T05:03:59;6.60;;;5.60;;
10653;SDS011;5375;51.250;6.776;2023-06-10T05:06:24;6.65;;;5.22;;
10653;SDS011;5375;51.250;6.776;2023-06-10T05:08:50;6.88;;;5.10;;
10653;SDS011;5375;51.250;6.776;2023-06-10T05:11:16;5.53;;;5.03;;
10653;SDS011;5375;51.250;6.776;2023-06-10T05:13:41;6.72;;;5.07;;
10653;SDS011;5375;51.250;6.776;2023-06-10T05:16:09;7.07;;;5.28;;
10653;SDS011;5375;51.250;6.776;2023-06-10T05:18:34;5.68;;;5.10;;
10653;SDS011;5375;51.250;6.776;2023-06-10T05:21:00;7.80;;;5.75;;
10653;SDS011;5375;51.250;6.776;2023-06-10T05:23:27;6.20;;;5.20;;
10653;SDS011;5375;51.250;6.776;2023-06-10T05:25:52;6.35;;;5.72;;
10653;SDS011;5375;51.250;6.776;2023-06-10T05:28:18;6.50;;;5.68;;
10653;SDS011;5375;51.250;6.776;2023-06-10T05:30:44;6.30;;;5.70;;
10653;SDS011;5375;51.250;6.776;2023-06-10T05:33:10;9.20;;;5.43;;
10653;SDS011;5375;51.250;6.776;2023-06-10T05:35:36;8.65;;;5.35;;
10653;SDS011;5375;51.250;6.776;2023-06-10T05:38:02;7.28;;;5.90;;
10653;SDS011;5375;51.250;6.776;2023-06-10T05:40:27;7.63;;;6.07;;
10653;SDS011;5375;51.250;6.776;2023-06-10T05:42:53;7.53;;;5.63;;
10653;SDS011;5375;51.250;6.776;2023-06-10T05:45:18;6.18;;;5.57;;
10653;SDS011;5375;51.250;6.776;2023-06-10T05:47:44;6.93;;;6.05;;
10653;SDS011;5375;51.250;6.776;2023-06-10T05:50:10;8.50;;;5.95;;
10653;SDS011;5375;51.250;6.776;2023-06-10T05:52:36;6.38;;;5.78;;
10653;SDS011;5375;51.250;6.776;2023-06-10T05:55:04;7.55;;;5.53;;
10653;SDS011;5375;51.250;6.776;2023-06-10T05:57:30;7.03;;;6.18;;
10653;SDS011;5375;51.250;6.776;2023-06-10T05:59:56;6.50;;;5.90;;
10653;SDS011;5375;51.250;6.776;2023-06-10T06:02:22;7.22;;;5.80;;
10653;SDS011;5375;51.250;6.776;2023-06-10T06:04:48;6.63;;;5.93;;
10653;SDS011;5375;51.250;6.776;2023-06-10T06:07:13;8.10;;;6.05;;
10653;SDS011;5375;51.250;6.776;2023-06-10T06:09:39;7.40;;;5.78;;
10653;SDS011;5375;51.250;6.776;2023-06-10T06:12:05;7.03;;;6.32;;
10653;SDS011;5375;51.250;6.776;2023-06-10T06:14:32;7.05;;;6.35;;
10653;SDS011;5375;51.250;6.776;2023-06-10T06:17:01;8.45;;;7.28;;
10653;SDS011;5375;51.250;6.776;2023-06-10T06:19:27;9.38;;;6.68;;
10653;SDS011;5375;51.250;6.776;2023-06-10T06:21:53;9.48;;;6.90;;
10653;SDS011;5375;51.250;6.776;2023-06-10T06:24:18;11.05;;;7.45;;
10653;SDS011;5375;51.250;6.776;2023-06-10T06:26:44;10.75;;;7.45;;
10653;SDS011;5375;51.250;6.776;2023-06-10T06:29:10;12.93;;;7.50;;
10653;SDS011;5375;51.250;6.776;2023-06-10T06:31:35;13.93;;;7.65;;
10653;SDS011;5375;51.250;6.776;2023-06-10T06:34:01;11.10;;;7.22;;
10653;SDS011;5375;51.250;6.776;2023-06-10T06:36:27;13.10;;;7.80;;
10653;SDS011;5375;51.250;6.776;2023-06-10T06:38:52;12.07;;;7.07;;
10653;SDS011;5375;51.250;6.776;2023-06-10T06:41:18;9.25;;;7.63;;
10653;SDS011;5375;51.250;6.776;2023-06-10T06:43:44;12.30;;;7.53;;
10653;SDS011;5375;51.250;6.776;2023-06-10T06:46:10;11.65;;;7.78;;
10653;SDS011;5375;51.250;6.776;2023-06-10T06:48:35;11.02;;;7.45;;
10653;SDS011;5375;51.250;6.776;2023-06-10T06:51:01;10.48;;;7.45;;
10653;SDS011;5375;51.250;6.776;2023-06-10T06:53:26;10.40;;;7.55;;
10653;SDS011;5375;51.250;6.776;2023-06-10T06:55:52;9.50;;;7.47;;
10653;SDS011;5375;51.250;6.776;2023-06-10T06:58:18;18.40;;;7.03;;
10653;SDS011;5375;51.250;6.776;2023-06-10T07:00:43;9.82;;;7.53;;
10653;SDS011;5375;51.250;6.776;2023-06-10T07:03:09;10.75;;;7.07;;
10653;SDS011;5375;51.250;6.776;2023-06-10T07:05:35;9.20;;;7.20;;
10653;SDS011;5375;51.250;6.776;2023-06-10T07:08:00;9.82;;;7.47;;
10653;SDS011;5375;51.250;6.776;2023-06-10T07:10:26;13.30;;;7.32;;
10653;SDS011;5375;51.250;6.776;2023-06-10T07:12:52;10.80;;;7.60;;
10653;SDS011;5375;51.250;6.776;2023-06-10T07:15:18;10.77;;;6.68;;
10653;SDS011;5375;51.250;6.776;2023-06-10T07:17:44;9.02;;;7.35;;
10653;SDS011;5375;51.250;6.776;2023-06-10T07:20:09;11.57;;;7.45;;
10653;SDS011;5375;51.250;6.776;2023-06-10T07:22:35;8.30;;;6.63;;
10653;SDS011;5375;51.250;6.776;2023-06-10T07:25:01;9.38;;;6.72;;
10653;SDS011;5375;51.250;6.776;2023-06-10T07:27:27;8.32;;;7.03;;
10653;SDS011;5375;51.250;6.776;2023-06-10T07:29:52;8.75;;;7.65;;
10653;SDS011;5375;51.250;6.776;2023-06-10T07:32:18;8.82;;;6.90;;
10653;SDS011;5375;51.250;6.776;2023-06-10T07:34:47;9.65;;;6.93;;
10653;SDS011;5375;51.250;6.776;2023-06-10T07:37:12;7.43;;;6.25;;
10653;SDS011;5375;51.250;6.776;2023-06-10T07:39:38;8.70;;;7.10;;
10653;SDS011;5375;51.250;6.776;2023-06-10T07:42:04;11.07;;;7.55;;
10653;SDS011;5375;51.250;6.776;2023-06-10T07:44:30;10.30;;;7.22;;
10653;SDS011;5375;51.250;6.776;2023-06-10T07:46:55;7.38;;;6.47;;
10653;SDS011;5375;51.250;6.776;2023-06-10T07:49:22;11.25;;;7.30;;
10653;SDS011;5375;51.250;6.776;2023-06-10T07:51:48;10.20;;;6.97;;
10653;SDS011;5375;51.250;6.776;2023-06-10T07:54:14;11.68;;;7.05;;
10653;SDS011;5375;51.250;6.776;2023-06-10T07:56:40;8.30;;;6.68;;
10653;SDS011;5375;51.250;6.776;2023-06-10T07:59:06;10.65;;;6.90;;
10653;SDS011;5375;51.250;6.776;2023-06-10T08:01:31;8.77;;;6.95;;
10653;SDS011;5375;51.250;6.776;2023-06-10T08:03:58;8.50;;;6.75;;
10653;SDS011;5375;51.250;6.776;2023-06-10T08:06:23;9.48;;;6.45;;
10653;SDS011;5375;51.250;6.776;2023-06-10T08:08:49;9.95;;;6.78;;
10653;SDS011;5375;51.250;6.776;2023-06-10T08:11:15;7.50;;;6.70;;
10653;SDS011;5375;51.250;6.776;2023-06-10T08:13:40;9.32;;;6.63;;
10653;SDS011;5375;51.250;6.776;2023-06-10T08:16:06;8.38;;;6.50;;
10653;SDS011;5375;51.250;6.776;2023-06-10T08:18:32;10.60;;;6.85;;
10653;SDS011;5375;51.250;6.776;2023-06-10T08:20:58;9.35;;;6.82;;
10653;SDS011;5375;51.250;6.776;2023-06-10T08:23:24;8.70;;;6.95;;
10653;SDS011;5375;51.250;6.776;2023-06-10T08:25:50;8.85;;;6.57;;
10653;SDS011;5375;51.250;6.776;2023-06-10T08:28:16;9.77;;;5.90;;
10653;SDS011;5375;51.250;6.776;2023-06-10T08:30:41;8.65;;;6.43;;
10653;SDS011;5375;51.250;6.776;2023-06-10T08:33:07;8.65;;;6.65;;
10653;SDS011;5375;51.250;6.776;2023-06-10T08:35:32;8.60;;;6.28;;
10653;SDS011;5375;51.250;6.776;2023-06-10T08:37:58;8.45;;;6.70;;
10653;SDS011;5375;51.250;6.776;2023-06-10T08:40:24;8.00;;;6.20;;
10653;SDS011;5375;51.250;6.776;2023-06-10T08:42:58;6.95;;;6.25;;
10653;SDS011;5375;51.250;6.776;2023-06-10T08:45:30;7.38;;;5.88;;
10653;SDS011;5375;51.250;6.776;2023-06-10T08:47:57;8.45;;;6.50;;
10653;SDS011;5375;51.250;6.776;2023-06-10T08:50:24;7.10;;;6.40;;
10653;SDS011;5375;51.250;6.776;2023-06-10T08:52:54;6.13;;;5.50;;
10653;SDS011;5375;51.250;6.776;2023-06-10T08:55:33;7.38;;;6.03;;
10653;SDS011;5375;51.250;6.776;2023-06-10T08:58:02;14.18;;;6.55;;
10653;SDS011;5375;51.250;6.776;2023-06-10T09:00:29;9.52;;;6.03;;
10653;SDS011;5375;51.250;6.776;2023-06-10T09:02:56;8.20;;;6.00;;
10653;SDS011;5375;51.250;6.776;2023-06-10T09:05:23;7.38;;;6.13;;
10653;SDS011;5375;51.250;6.776;2023-06-10T09:07:49;6.32;;;5.70;;
10653;SDS011;5375;51.250;6.776;2023-06-10T09:10:17;7.22;;;5.75;;
10653;SDS011;5375;51.250;6.776;2023-06-10T09:12:43;7.55;;;5.78;;
10653;SDS011;5375;51.250;6.776;2023-06-10T09:15:09;10.52;;;6.43;;
10653;SDS011;5375;51.250;6.776;2023-06-10T09:17:36;6.53;;;5.72;;
10653;SDS011;5375;51.250;6.776;2023-06-10T09:20:03;9.05;;;6.35;;
10653;SDS011;5375;51.250;6.776;2023-06-10T09:22:29;6.63;;;5.65;;
10653;SDS011;5375;51.250;6.776;2023-06-10T09:25:05;6.97;;;6.28;;
10653;SDS011;5375;51.250;6.776;2023-06-10T09:27:44;7.00;;;5.97;;
10653;SDS011;5375;51.250;6.776;2023-06-10T09:30:23;11.55;;;5.68;;
10653;SDS011;5375;51.250;6.776;2023-06-10T09:32:53;7.15;;;5.90;;
10653;SDS011;5375;51.250;6.776;2023-06-10T09:35:25;6.50;;;5.78;;
10653;SDS011;5375;51.250;6.776;2023-06-10T09:37:52;6.15;;;5.47;;
10653;SDS011;5375;51.250;6.776;2023-06-10T09:40:19;7.30;;;6.03;;
10653;SDS011;5375;51.250;6.776;2023-06-10T09:42:45;6.38;;;5.70;;
10653;SDS011;5375;51.250;6.776;2023-06-10T09:45:14;8.80;;;5.70;;
10653;SDS011;5375;51.250;6.776;2023-06-10T09:47:39;6.22;;;5.22;;
10653;SDS011;5375;51.250;6.776;2023-06-10T09:50:05;6.05;;;5.38;;
10653;SDS011;5375;51.250;6.776;2023-06-10T09:52:31;6.18;;;5.35;;
10653;SDS011;5375;51.250;6.776;2023-06-10T09:55:01;6.63;;;5.40;;
10653;SDS011;5375;51.250;6.776;2023-06-10T09:57:30;6.03;;;5.32;;
10653;SDS011;5375;51.250;6.776;2023-06-10T10:00:07;5.97;;;5.15;;
10653;SDS011;5375;51.250;6.776;2023-06-10T10:02:53;6.15;;;4.88;;
10653;SDS011;5375;51.250;6.776;2023-06-10T10:05:20;7.90;;;5.28;;
10653;SDS011;5375;51.250;6.776;2023-06-10T10:07:46;6.10;;;5.32;;
10653;SDS011;5375;51.250;6.776;2023-06-10T10:10:13;5.80;;;5.20;;
10653;SDS011;5375;51.250;6.776;2023-06-10T10:12:40;6.03;;;5.40;;
10653;SDS011;5375;51.250;6.776;2023-06-10T10:15:07;6.05;;;5.05;;
10653;SDS011;5375;51.250;6.776;2023-06-10T10:17:34;5.88;;;5.10;;
10653;SDS011;5375;51.250;6.776;2023-06-10T10:20:17;7.90;;;6.00;;
10653;SDS011;5375;51.250;6.776;2023-06-10T10:22:49;7.72;;;5.60;;
10653;SDS011;5375;51.250;6.776;2023-06-10T10:25:19;8.15;;;6.03;;
10653;SDS011;5375;51.250;6.776;2023-06-10T10:27:57;7.20;;;5.88;;
10653;SDS011;5375;51.250;6.776;2023-06-10T10:30:30;6.57;;;5.50;;
10653;SDS011;5375;51.250;6.776;2023-06-10T10:32:58;9.63;;;5.57;;
10653;SDS011;5375;51.250;6.776;2023-06-10T10:35:24;7.30;;;5.53;;
10653;SDS011;5375;51.250;6.776;2023-06-10T10:37:51;5.63;;;4.88;;
10653;SDS011;5375;51.250;6.776;2023-06-10T10:40:18;5.55;;;5.05;;
10653;SDS011;5375;51.250;6.776;2023-06-10T10:42:45;7.28;;;5.35;;
10653;SDS011;5375;51.250;6.776;2023-06-10T10:45:14;7.78;;;5.55;;
10653;SDS011;5375;51.250;6.776;2023-06-10T10:47:39;7.32;;;5.00;;
10653;SDS011;5375;51.250;6.776;2023-06-10T10:50:26;5.75;;;5.05;;
10653;SDS011;5375;51.250;6.776;2023-06-10T10:52:56;5.53;;;4.97;;
10653;SDS011;5375;51.250;6.776;2023-06-10T10:55:25;5.90;;;4.80;;
10653;SDS011;5375;51.250;6.776;2023-06-10T10:58:05;5.50;;;4.78;;
10653;SDS011;5375;51.250;6.776;2023-06-10T11:00:32;6.90;;;4.57;;
10653;SDS011;5375;51.250;6.776;2023-06-10T11:03:17;5.88;;;5.10;;
10653;SDS011;5375;51.250;6.776;2023-06-10T11:05:43;5.38;;;4.82;;
10653;SDS011;5375;51.250;6.776;2023-06-10T11:08:14;5.47;;;4.90;;
10653;SDS011;5375;51.250;6.776;2023-06-10T11:11:00;5.13;;;4.63;;
10653;SDS011;5375;51.250;6.776;2023-06-10T11:13:41;5.72;;;4.75;;
10653;SDS011;5375;51.250;6.776;2023-06-10T11:16:38;5.88;;;5.28;;
10653;SDS011;5375;51.250;6.776;2023-06-10T11:19:06;5.97;;;5.25;;
10653;SDS011;5375;51.250;6.776;2023-06-10T11:21:31;7.32;;;5.18;;
10653;SDS011;5375;51.250;6.776;2023-06-10T11:24:00;5.50;;;4.55;;
10653;SDS011;5375;51.250;6.776;2023-06-10T11:26:43;6.82;;;4.60;;
10653;SDS011;5375;51.250;6.776;2023-06-10T11:29:09;5.30;;;4.47;;
10653;SDS011;5375;51.250;6.776;2023-06-10T11:31:39;7.03;;;4.55;;
10653;SDS011;5375;51.250;6.776;2023-06-10T11:34:13;6.57;;;4.78;;
10653;SDS011;5375;51.250;6.776;2023-06-10T11:36:41;5.15;;;4.40;;
10653;SDS011;5375;51.250;6.776;2023-06-10T11:39:08;5.47;;;4.90;;
10653;SDS011;5375;51.250;6.776;2023-06-10T11:41:35;6.50;;;5.35;;
10653;SDS011;5375;51.250;6.776;2023-06-10T11:44:03;5.60;;;4.80;;
10653;SDS011;5375;51.250;6.776;2023-06-10T11:46:38;6.03;;;5.10;;
10653;SDS011;5375;51.250;6.776;2023-06-10T11:49:04;5.78;;;4.72;;
10653;SDS011;5375;51.250;6.776;2023-06-10T11:51:34;5.72;;;5.13;;
10653;SDS011;5375;51.250;6.776;2023-06-10T11:54:01;5.30;;;4.80;;
10653;SDS011;5375;51.250;6.776;2023-06-10T11:56:29;5.60;;;4.80;;
10653;SDS011;5375;51.250;6.776;2023-06-10T11:58:59;5.10;;;4.53;;
10653;SDS011;5375;51.250;6.776;2023-06-10T12:01:31;5.70;;;5.03;;
10653;SDS011;5375;51.250;6.776;2023-06-10T12:06:24;5.70;;;4.95;;
10653;SDS011;5375;51.250;6.776;2023-06-10T12:08:49;5.57;;;5.03;;
10653;SDS011;5375;51.250;6.776;2023-06-10T12:11:15;6.03;;;5.35;;
10653;SDS011;5375;51.250;6.776;2023-06-10T12:13:47;4.97;;;4.47;;
10653;SDS011;5375;51.250;6.776;2023-06-10T12:16:14;5.93;;;4.65;;
10653;SDS011;5375;51.250;6.776;2023-06-10T12:18:41;5.35;;;4.80;;
10653;SDS011;5375;51.250;6.776;2023-06-10T12:21:15;5.60;;;4.65;;
10653;SDS011;5375;51.250;6.776;2023-06-10T12:24:18;6.32;;;4.90;;
10653;SDS011;5375;51.250;6.776;2023-06-10T12:26:39;5.43;;;4.57;;
10653;SDS011;5375;51.250;6.776;2023-06-10T12:32:00;4.65;;;4.22;;
10653;SDS011;5375;51.250;6.776;2023-06-10T12:34:37;5.60;;;4.32;;
10653;SDS011;5375;51.250;6.776;2023-06-10T12:37:05;5.30;;;4.40;;
10653;SDS011;5375;51.250;6.776;2023-06-10T12:39:38;4.47;;;3.88;;
10653;SDS011;5375;51.250;6.776;2023-06-10T12:42:04;5.80;;;4.03;;
10653;SDS011;5375;51.250;6.776;2023-06-10T12:44:34;4.45;;;4.05;;
10653;SDS011;5375;51.250;6.776;2023-06-10T12:47:01;5.05;;;4.40;;
10653;SDS011;5375;51.250;6.776;2023-06-10T12:49:37;4.95;;;4.45;;
10653;SDS011;5375;51.250;6.776;2023-06-10T12:52:03;4.63;;;4.18;;
10653;SDS011;5375;51.250;6.776;2023-06-10T12:54:30;4.30;;;3.90;;
10653;SDS011;5375;51.250;6.776;2023-06-10T12:56:55;4.53;;;4.05;;
10653;SDS011;5375;51.250;6.776;2023-06-10T12:59:21;4.38;;;3.88;;
10653;SDS011;5375;51.250;6.776;2023-06-10T13:01:53;5.03;;;4.40;;
10653;SDS011;5375;51.250;6.776;2023-06-10T13:04:19;4.80;;;3.75;;
10653;SDS011;5375;51.250;6.776;2023-06-10T13:06:46;4.90;;;4.05;;
10653;SDS011;5375;51.250;6.776;2023-06-10T13:09:15;4.55;;;4.15;;
10653;SDS011;5375;51.250;6.776;2023-06-10T13:11:41;4.88;;;3.85;;
10653;SDS011;5375;51.250;6.776;2023-06-10T13:14:08;4.93;;;4.00;;
10653;SDS011;5375;51.250;6.776;2023-06-10T13:16:34;4.55;;;3.55;;
10653;SDS011;5375;51.250;6.776;2023-06-10T13:19:02;7.18;;;3.95;;
10653;SDS011;5375;51.250;6.776;2023-06-10T13:21:30;4.60;;;4.03;;
10653;SDS011;5375;51.250;6.776;2023-06-10T13:23:56;4.00;;;3.60;;
10653;SDS011;5375;51.250;6.776;2023-06-10T13:26:22;5.00;;;4.05;;
10653;SDS011;5375;51.250;6.776;2023-06-10T13:28:48;4.65;;;4.18;;
10653;SDS011;5375;51.250;6.776;2023-06-10T13:31:13;5.18;;;3.95;;
10653;SDS011;5375;51.250;6.776;2023-06-10T13:33:39;4.28;;;3.88;;
10653;SDS011;5375;51.250;6.776;2023-06-10T13:36:05;4.93;;;4.43;;
10653;SDS011;5375;51.250;6.776;2023-06-10T13:38:31;4.22;;;3.83;;
10653;SDS011;5375;51.250;6.776;2023-06-10T13:40:57;4.82;;;3.70;;
10653;SDS011;5375;51.250;6.776;2023-06-10T13:43:22;4.40;;;4.00;;
10653;SDS011;5375;51.250;6.776;2023-06-10T13:45:48;4.15;;;3.75;;
10653;SDS011;5375;51.250;6.776;2023-06-10T13:48:14;4.90;;;3.90;;
10653;SDS011;5375;51.250;6.776;2023-06-10T13:50:39;3.95;;;3.55;;
10653;SDS011;5375;51.250;6.776;2023-06-10T13:53:05;4.63;;;4.10;;
10653;SDS011;5375;51.250;6.776;2023-06-10T13:55:31;4.50;;;3.95;;
10653;SDS011;5375;51.250;6.776;2023-06-10T13:57:56;4.47;;;4.07;;
10653;SDS011;5375;51.250;6.776;2023-06-10T14:00:22;4.25;;;3.85;;
10653;SDS011;5375;51.250;6.776;2023-06-10T14:02:48;6.15;;;4.20;;
10653;SDS011;5375;51.250;6.776;2023-06-10T14:05:13;4.32;;;3.85;;
10653;SDS011;5375;51.250;6.776;2023-06-10T14:07:39;4.50;;;3.80;;
10653;SDS011;5375;51.250;6.776;2023-06-10T14:10:06;4.10;;;3.70;;
10653;SDS011;5375;51.250;6.776;2023-06-10T14:12:33;4.32;;;3.92;;
10653;SDS011;5375;51.250;6.776;2023-06-10T14:14:59;4.85;;;3.90;;
10653;SDS011;5375;51.250;6.776;2023-06-10T14:17:25;4.40;;;3.90;;
10653;SDS011;5375;51.250;6.776;2023-06-10T14:19:51;5.18;;;3.88;;
10653;SDS011;5375;51.250;6.776;2023-06-10T14:22:16;4.38;;;3.60;;
10653;SDS011;5375;51.250;6.776;2023-06-10T14:24:42;4.40;;;3.90;;
10653;SDS011;5375;51.250;6.776;2023-06-10T14:27:08;4.30;;;3.90;;
10653;SDS011;5375;51.250;6.776;2023-06-10T14:29:33;4.07;;;3.78;;
10653;SDS011;5375;51.250;6.776;2023-06-10T14:32:00;4.18;;;3.70;;
10653;SDS011;5375;51.250;6.776;2023-06-10T14:34:26;4.78;;;3.70;;
10653;SDS011;5375;51.250;6.776;2023-06-10T14:36:58;3.95;;;3.60;;
10653;SDS011;5375;51.250;6.776;2023-06-10T14:39:25;4.15;;;3.75;;
10653;SDS011;5375;51.250;6.776;2023-06-10T14:41:51;4.13;;;3.63;;
10653;SDS011;5375;51.250;6.776;2023-06-10T14:44:18;4.00;;;3.60;;
10653;SDS011;5375;51.250;6.776;2023-06-10T14:46:43;4.85;;;3.90;;
10653;SDS011;5375;51.250;6.776;2023-06-10T14:49:09;4.53;;;3.83;;
10653;SDS011;5375;51.250;6.776;2023-06-10T14:51:35;4.20;;;3.80;;
10653;SDS011;5375;51.250;6.776;2023-06-10T14:54:00;3.88;;;3.47;;
10653;SDS011;5375;51.250;6.776;2023-06-10T14:56:26;3.95;;;3.55;;
10653;SDS011;5375;51.250;6.776;2023-06-10T14:58:52;4.28;;;3.83;;
10653;SDS011;5375;51.250;6.776;2023-06-10T15:01:17;3.90;;;3.60;;
10653;SDS011;5375;51.250;6.776;2023-06-10T15:03:43;4.05;;;3.50;;
10653;SDS011;5375;51.250;6.776;2023-06-10T15:06:09;4.07;;;3.67;;
10653;SDS011;5375;51.250;6.776;2023-06-10T15:08:35;3.97;;;3.58;;
10653;SDS011;5375;51.250;6.776;2023-06-10T15:11:01;4.10;;;3.47;;